sensor_id;sensor_type;location;lat;lon;timestamp;P1;durP1;ratioP1;P2;durP2;ratioP2
22955;SDS011;40888;48.148;11.526;2023-08-20T00:00:28;5.68;;;4.28;;
22955;SDS011;40888;48.148;11.526;2023-08-20T00:03:07;8.48;;;4.15;;
22955;SDS011;40888;48.148;11.526;2023-08-20T00:05:36;9.80;;;4.80;;
22955;SDS011;40888;48.148;11.526;2023-08-20T00:08:02;7.85;;;4.03;;
22955;SDS011;40888;48.148;11.526;2023-08-20T00:10:29;6.90;;;4.15;;
22955;SDS011;40888;48.148;11.526;2023-08-20T00:12:55;6.75;;;4.30;;
22955;SDS011;40888;48.148;11.526;2023-08-20T00:15:21;8.50;;;4.38;;
22955;SDS011;40888;48.148;11.526;2023-08-20T00:17:51;8.23;;;4.00;;
22955;SDS011;40888;48.148;11.526;2023-08-20T00:20:18;6.07;;;4.22;;
22955;SDS011;40888;48.148;11.526;2023-08-20T00:22:44;6.88;;;4.35;;
22955;SDS011;40888;48.148;11.526;2023-08-20T00:25:14;7.15;;;3.88;;
22955;SDS011;40888;48.148;11.526;2023-08-20T00:27:41;6.55;;;4.50;;
22955;SDS011;40888;48.148;11.526;2023-08-20T00:30:07;5.70;;;4.30;;
22955;SDS011;40888;48.148;11.526;2023-08-20T00:32:34;8.30;;;4.13;;
22955;SDS011;40888;48.148;11.526;2023-08-20T00:35:00;7.32;;;4.43;;
22955;SDS011;40888;48.148;11.526;2023-08-20T00:37:30;4.72;;;4.20;;
22955;SDS011;40888;48.148;11.526;2023-08-20T00:39:56;6.93;;;4.55;;
22955;SDS011;40888;48.148;11.526;2023-08-20T00:42:23;5.78;;;4.22;;
22955;SDS011;40888;48.148;11.526;2023-08-20T00:44:52;7.05;;;4.30;;
22955;SDS011;40888;48.148;11.526;2023-08-20T00:47:19;6.50;;;4.80;;
22955;SDS011;40888;48.148;11.526;2023-08-20T00:49:45;9.75;;;4.70;;
22955;SDS011;40888;48.148;11.526;2023-08-20T00:52:12;5.90;;;3.83;;
22955;SDS011;40888;48.148;11.526;2023-08-20T00:54:39;8.13;;;4.40;;
22955;SDS011;40888;48.148;11.526;2023-08-20T00:57:06;5.90;;;4.60;;
22955;SDS011;40888;48.148;11.526;2023-08-20T00:59:32;9.32;;;4.75;;
22955;SDS011;40888;48.148;11.526;2023-08-20T01:01:59;6.65;;;4.22;;
22955;SDS011;40888;48.148;11.526;2023-08-20T01:04:26;8.65;;;4.60;;
22955;SDS011;40888;48.148;11.526;2023-08-20T01:07:16;8.02;;;4.60;;
22955;SDS011;40888;48.148;11.526;2023-08-20T01:12:13;11.05;;;4.57;;
22955;SDS011;40888;48.148;11.526;2023-08-20T01:14:40;6.93;;;4.18;;
22955;SDS011;40888;48.148;11.526;2023-08-20T01:17:06;9.00;;;4.55;;
22955;SDS011;40888;48.148;11.526;2023-08-20T01:19:32;4.25;;;3.85;;
22955;SDS011;40888;48.148;11.526;2023-08-20T01:24:47;7.40;;;4.38;;
22955;SDS011;40888;48.148;11.526;2023-08-20T01:30:20;5.25;;;4.50;;
22955;SDS011;40888;48.148;11.526;2023-08-20T01:32:47;8.30;;;4.65;;
22955;SDS011;40888;48.148;11.526;2023-08-20T01:35:15;6.88;;;4.97;;
22955;SDS011;40888;48.148;11.526;2023-08-20T01:37:42;8.60;;;4.78;;
22955;SDS011;40888;48.148;11.526;2023-08-20T01:40:08;7.88;;;4.18;;
22955;SDS011;40888;48.148;11.526;2023-08-20T01:42:36;5.75;;;4.88;;
22955;SDS011;40888;48.148;11.526;2023-08-20T01:45:02;7.43;;;4.60;;
22955;SDS011;40888;48.148;11.526;2023-08-20T01:47:29;9.43;;;4.32;;
22955;SDS011;40888;48.148;11.526;2023-08-20T01:49:55;12.00;;;5.10;;
22955;SDS011;40888;48.148;11.526;2023-08-20T01:52:21;8.77;;;5.03;;
22955;SDS011;40888;48.148;11.526;2023-08-20T01:54:48;9.30;;;4.88;;
22955;SDS011;40888;48.148;11.526;2023-08-20T01:57:14;10.50;;;4.65;;
22955;SDS011;40888;48.148;11.526;2023-08-20T01:59:40;8.85;;;4.50;;
22955;SDS011;40888;48.148;11.526;2023-08-20T02:02:06;4.65;;;4.07;;
22955;SDS011;40888;48.148;11.526;2023-08-20T02:04:33;8.50;;;4.20;;
22955;SDS011;40888;48.148;11.526;2023-08-20T02:06:59;10.95;;;4.70;;
22955;SDS011;40888;48.148;11.526;2023-08-20T02:09:26;5.30;;;4.05;;
22955;SDS011;40888;48.148;11.526;2023-08-20T02:11:52;8.95;;;5.18;;
22955;SDS011;40888;48.148;11.526;2023-08-20T02:14:18;7.05;;;4.13;;
22955;SDS011;40888;48.148;11.526;2023-08-20T02:16:45;7.03;;;4.55;;
22955;SDS011;40888;48.148;11.526;2023-08-20T02:19:11;4.80;;;3.95;;
22955;SDS011;40888;48.148;11.526;2023-08-20T02:21:39;7.60;;;4.50;;
22955;SDS011;40888;48.148;11.526;2023-08-20T02:24:06;7.05;;;4.30;;
22955;SDS011;40888;48.148;11.526;2023-08-20T02:26:32;6.55;;;4.05;;
22955;SDS011;40888;48.148;11.526;2023-08-20T02:28:58;4.22;;;3.72;;
22955;SDS011;40888;48.148;11.526;2023-08-20T02:31:24;6.32;;;4.32;;
22955;SDS011;40888;48.148;11.526;2023-08-20T02:33:51;9.65;;;4.03;;
22955;SDS011;40888;48.148;11.526;2023-08-20T02:36:17;7.47;;;4.22;;
22955;SDS011;40888;48.148;11.526;2023-08-20T02:38:44;6.07;;;4.20;;
22955;SDS011;40888;48.148;11.526;2023-08-20T02:41:11;9.50;;;4.97;;
22955;SDS011;40888;48.148;11.526;2023-08-20T02:43:37;7.47;;;4.00;;
22955;SDS011;40888;48.148;11.526;2023-08-20T02:46:03;5.68;;;4.00;;
22955;SDS011;40888;48.148;11.526;2023-08-20T02:48:30;6.55;;;4.35;;
22955;SDS011;40888;48.148;11.526;2023-08-20T02:50:56;7.63;;;3.88;;
22955;SDS011;40888;48.148;11.526;2023-08-20T02:53:22;8.35;;;4.22;;
22955;SDS011;40888;48.148;11.526;2023-08-20T02:55:48;7.90;;;4.25;;
22955;SDS011;40888;48.148;11.526;2023-08-20T02:58:15;4.68;;;3.65;;
22955;SDS011;40888;48.148;11.526;2023-08-20T03:00:42;6.75;;;4.55;;
22955;SDS011;40888;48.148;11.526;2023-08-20T03:03:10;5.85;;;4.50;;
22955;SDS011;40888;48.148;11.526;2023-08-20T03:05:36;6.00;;;4.43;;
22955;SDS011;40888;48.148;11.526;2023-08-20T03:08:02;5.10;;;4.20;;
22955;SDS011;40888;48.148;11.526;2023-08-20T03:10:29;7.05;;;3.83;;
22955;SDS011;40888;48.148;11.526;2023-08-20T03:12:57;6.18;;;4.10;;
22955;SDS011;40888;48.148;11.526;2023-08-20T03:15:23;7.10;;;3.85;;
22955;SDS011;40888;48.148;11.526;2023-08-20T03:17:49;7.40;;;4.47;;
22955;SDS011;40888;48.148;11.526;2023-08-20T03:20:16;6.15;;;4.30;;
22955;SDS011;40888;48.148;11.526;2023-08-20T03:22:42;6.28;;;3.65;;
22955;SDS011;40888;48.148;11.526;2023-08-20T03:25:08;7.05;;;4.03;;
22955;SDS011;40888;48.148;11.526;2023-08-20T03:27:34;6.03;;;3.80;;
22955;SDS011;40888;48.148;11.526;2023-08-20T03:30:01;6.93;;;4.10;;
22955;SDS011;40888;48.148;11.526;2023-08-20T03:32:27;9.38;;;4.28;;
22955;SDS011;40888;48.148;11.526;2023-08-20T03:34:53;6.18;;;4.07;;
22955;SDS011;40888;48.148;11.526;2023-08-20T03:37:21;5.75;;;4.15;;
22955;SDS011;40888;48.148;11.526;2023-08-20T03:39:47;9.95;;;4.53;;
22955;SDS011;40888;48.148;11.526;2023-08-20T03:42:13;8.85;;;3.78;;
22955;SDS011;40888;48.148;11.526;2023-08-20T03:44:40;7.78;;;3.95;;
22955;SDS011;40888;48.148;11.526;2023-08-20T03:47:06;8.38;;;4.50;;
22955;SDS011;40888;48.148;11.526;2023-08-20T03:49:32;5.13;;;3.70;;
22955;SDS011;40888;48.148;11.526;2023-08-20T03:51:58;6.43;;;4.05;;
22955;SDS011;40888;48.148;11.526;2023-08-20T03:54:27;13.57;;;5.22;;
22955;SDS011;40888;48.148;11.526;2023-08-20T03:56:54;4.80;;;4.28;;
22955;SDS011;40888;48.148;11.526;2023-08-20T03:59:20;6.05;;;4.38;;
22955;SDS011;40888;48.148;11.526;2023-08-20T04:01:46;7.20;;;4.70;;
22955;SDS011;40888;48.148;11.526;2023-08-20T04:04:12;7.65;;;4.30;;
22955;SDS011;40888;48.148;11.526;2023-08-20T04:06:38;5.57;;;4.20;;
22955;SDS011;40888;48.148;11.526;2023-08-20T04:09:04;7.18;;;4.07;;
22955;SDS011;40888;48.148;11.526;2023-08-20T04:11:31;9.73;;;5.40;;
22955;SDS011;40888;48.148;11.526;2023-08-20T04:13:57;7.82;;;5.07;;
22955;SDS011;40888;48.148;11.526;2023-08-20T04:16:24;9.07;;;4.88;;
22955;SDS011;40888;48.148;11.526;2023-08-20T04:18:50;9.95;;;4.47;;
22955;SDS011;40888;48.148;11.526;2023-08-20T04:21:16;5.15;;;4.22;;
22955;SDS011;40888;48.148;11.526;2023-08-20T04:23:43;7.90;;;4.28;;
22955;SDS011;40888;48.148;11.526;2023-08-20T04:26:09;5.32;;;4.43;;
22955;SDS011;40888;48.148;11.526;2023-08-20T04:28:35;9.25;;;4.25;;
22955;SDS011;40888;48.148;11.526;2023-08-20T04:31:01;7.68;;;4.47;;
22955;SDS011;40888;48.148;11.526;2023-08-20T04:33:27;6.60;;;4.55;;
22955;SDS011;40888;48.148;11.526;2023-08-20T04:35:53;6.80;;;4.50;;
22955;SDS011;40888;48.148;11.526;2023-08-20T04:38:20;8.68;;;4.35;;
22955;SDS011;40888;48.148;11.526;2023-08-20T04:40:46;6.00;;;4.57;;
22955;SDS011;40888;48.148;11.526;2023-08-20T04:43:12;8.55;;;5.00;;
22955;SDS011;40888;48.148;11.526;2023-08-20T04:45:39;7.18;;;4.40;;
22955;SDS011;40888;48.148;11.526;2023-08-20T04:48:05;4.65;;;3.72;;
22955;SDS011;40888;48.148;11.526;2023-08-20T04:50:31;7.28;;;4.60;;
22955;SDS011;40888;48.148;11.526;2023-08-20T04:52:57;9.82;;;4.68;;
22955;SDS011;40888;48.148;11.526;2023-08-20T04:55:29;8.07;;;4.40;;
22955;SDS011;40888;48.148;11.526;2023-08-20T04:57:55;9.10;;;4.40;;
22955;SDS011;40888;48.148;11.526;2023-08-20T05:00:22;8.30;;;4.60;;
22955;SDS011;40888;48.148;11.526;2023-08-20T05:02:48;8.00;;;4.78;;
22955;SDS011;40888;48.148;11.526;2023-08-20T05:05:14;5.18;;;4.40;;
22955;SDS011;40888;48.148;11.526;2023-08-20T05:07:40;6.75;;;4.82;;
22955;SDS011;40888;48.148;11.526;2023-08-20T05:10:06;7.78;;;4.85;;
22955;SDS011;40888;48.148;11.526;2023-08-20T05:12:34;6.00;;;4.30;;
22955;SDS011;40888;48.148;11.526;2023-08-20T05:15:00;7.75;;;4.53;;
22955;SDS011;40888;48.148;11.526;2023-08-20T05:17:26;6.88;;;4.75;;
22955;SDS011;40888;48.148;11.526;2023-08-20T05:19:52;8.50;;;4.43;;
22955;SDS011;40888;48.148;11.526;2023-08-20T05:22:18;7.40;;;4.53;;
22955;SDS011;40888;48.148;11.526;2023-08-20T05:24:44;8.65;;;4.53;;
22955;SDS011;40888;48.148;11.526;2023-08-20T05:27:13;7.10;;;4.88;;
22955;SDS011;40888;48.148;11.526;2023-08-20T05:29:39;10.00;;;5.15;;
22955;SDS011;40888;48.148;11.526;2023-08-20T05:32:06;9.73;;;5.03;;
22955;SDS011;40888;48.148;11.526;2023-08-20T05:34:32;6.57;;;4.43;;
22955;SDS011;40888;48.148;11.526;2023-08-20T05:36:59;7.25;;;4.38;;
22955;SDS011;40888;48.148;11.526;2023-08-20T05:39:25;11.90;;;7.00;;
22955;SDS011;40888;48.148;11.526;2023-08-20T05:41:52;5.93;;;4.32;;
22955;SDS011;40888;48.148;11.526;2023-08-20T05:44:18;8.10;;;4.22;;
22955;SDS011;40888;48.148;11.526;2023-08-20T05:46:44;5.65;;;4.68;;
22955;SDS011;40888;48.148;11.526;2023-08-20T05:49:11;7.15;;;4.22;;
22955;SDS011;40888;48.148;11.526;2023-08-20T05:51:37;8.07;;;4.10;;
22955;SDS011;40888;48.148;11.526;2023-08-20T05:54:03;6.68;;;3.95;;
22955;SDS011;40888;48.148;11.526;2023-08-20T05:56:30;5.00;;;4.05;;
22955;SDS011;40888;48.148;11.526;2023-08-20T05:58:56;5.28;;;4.15;;
22955;SDS011;40888;48.148;11.526;2023-08-20T06:01:22;6.35;;;4.50;;
22955;SDS011;40888;48.148;11.526;2023-08-20T06:03:48;6.80;;;5.00;;
22955;SDS011;40888;48.148;11.526;2023-08-20T06:06:14;6.70;;;3.83;;
22955;SDS011;40888;48.148;11.526;2023-08-20T06:08:40;7.65;;;4.28;;
22955;SDS011;40888;48.148;11.526;2023-08-20T06:11:06;5.35;;;3.95;;
22955;SDS011;40888;48.148;11.526;2023-08-20T06:13:33;7.07;;;4.10;;
22955;SDS011;40888;48.148;11.526;2023-08-20T06:15:59;8.45;;;4.45;;
22955;SDS011;40888;48.148;11.526;2023-08-20T06:18:25;5.82;;;3.80;;
22955;SDS011;40888;48.148;11.526;2023-08-20T06:20:51;7.65;;;4.05;;
22955;SDS011;40888;48.148;11.526;2023-08-20T06:23:17;9.25;;;4.60;;
22955;SDS011;40888;48.148;11.526;2023-08-20T06:25:43;8.85;;;4.57;;
22955;SDS011;40888;48.148;11.526;2023-08-20T06:28:10;7.60;;;4.95;;
22955;SDS011;40888;48.148;11.526;2023-08-20T06:30:36;5.38;;;3.95;;
22955;SDS011;40888;48.148;11.526;2023-08-20T06:33:02;8.05;;;4.68;;
22955;SDS011;40888;48.148;11.526;2023-08-20T06:35:28;13.18;;;4.93;;
22955;SDS011;40888;48.148;11.526;2023-08-20T06:37:54;6.35;;;4.35;;
22955;SDS011;40888;48.148;11.526;2023-08-20T06:40:20;7.72;;;4.63;;
22955;SDS011;40888;48.148;11.526;2023-08-20T06:42:46;9.50;;;4.57;;
22955;SDS011;40888;48.148;11.526;2023-08-20T06:45:12;6.80;;;3.70;;
22955;SDS011;40888;48.148;11.526;2023-08-20T06:47:39;7.10;;;4.40;;
22955;SDS011;40888;48.148;11.526;2023-08-20T06:50:05;5.90;;;4.28;;
22955;SDS011;40888;48.148;11.526;2023-08-20T06:52:31;5.63;;;4.00;;
22955;SDS011;40888;48.148;11.526;2023-08-20T06:54:57;5.93;;;4.30;;
22955;SDS011;40888;48.148;11.526;2023-08-20T06:57:24;8.10;;;4.03;;
22955;SDS011;40888;48.148;11.526;2023-08-20T06:59:50;5.57;;;4.18;;
22955;SDS011;40888;48.148;11.526;2023-08-20T07:02:16;6.57;;;4.22;;
22955;SDS011;40888;48.148;11.526;2023-08-20T07:04:42;7.88;;;4.63;;
22955;SDS011;40888;48.148;11.526;2023-08-20T07:07:08;11.23;;;4.70;;
22955;SDS011;40888;48.148;11.526;2023-08-20T07:09:34;10.27;;;4.80;;
22955;SDS011;40888;48.148;11.526;2023-08-20T07:12:01;7.97;;;4.63;;
22955;SDS011;40888;48.148;11.526;2023-08-20T07:14:28;5.15;;;4.18;;
22955;SDS011;40888;48.148;11.526;2023-08-20T07:16:54;8.38;;;4.47;;
22955;SDS011;40888;48.148;11.526;2023-08-20T07:19:20;4.68;;;4.05;;
22955;SDS011;40888;48.148;11.526;2023-08-20T07:21:46;8.68;;;4.22;;
22955;SDS011;40888;48.148;11.526;2023-08-20T07:24:12;9.68;;;4.28;;
22955;SDS011;40888;48.148;11.526;2023-08-20T07:26:39;5.60;;;4.05;;
22955;SDS011;40888;48.148;11.526;2023-08-20T07:29:05;3.90;;;3.50;;
22955;SDS011;40888;48.148;11.526;2023-08-20T07:31:32;7.10;;;3.70;;
22955;SDS011;40888;48.148;11.526;2023-08-20T07:33:59;6.70;;;4.28;;
22955;SDS011;40888;48.148;11.526;2023-08-20T07:36:25;8.80;;;4.78;;
22955;SDS011;40888;48.148;11.526;2023-08-20T07:38:52;5.65;;;3.85;;
22955;SDS011;40888;48.148;11.526;2023-08-20T07:41:19;6.13;;;3.80;;
22955;SDS011;40888;48.148;11.526;2023-08-20T07:43:45;8.25;;;4.03;;
22955;SDS011;40888;48.148;11.526;2023-08-20T07:46:12;5.88;;;4.15;;
22955;SDS011;40888;48.148;11.526;2023-08-20T07:48:38;7.15;;;3.70;;
22955;SDS011;40888;48.148;11.526;2023-08-20T07:51:05;9.23;;;4.35;;
22955;SDS011;40888;48.148;11.526;2023-08-20T07:53:31;7.35;;;3.92;;
22955;SDS011;40888;48.148;11.526;2023-08-20T07:55:58;8.80;;;4.68;;
22955;SDS011;40888;48.148;11.526;2023-08-20T07:58:25;7.68;;;3.97;;
22955;SDS011;40888;48.148;11.526;2023-08-20T08:00:51;6.65;;;4.40;;
22955;SDS011;40888;48.148;11.526;2023-08-20T08:03:17;5.55;;;3.53;;
22955;SDS011;40888;48.148;11.526;2023-08-20T08:05:47;9.23;;;4.07;;
22955;SDS011;40888;48.148;11.526;2023-08-20T08:08:14;6.75;;;4.30;;
22955;SDS011;40888;48.148;11.526;2023-08-20T08:10:40;5.57;;;4.13;;
22955;SDS011;40888;48.148;11.526;2023-08-20T08:13:09;5.80;;;3.90;;
22955;SDS011;40888;48.148;11.526;2023-08-20T08:15:35;5.00;;;3.95;;
22955;SDS011;40888;48.148;11.526;2023-08-20T08:18:02;6.95;;;3.67;;
22955;SDS011;40888;48.148;11.526;2023-08-20T08:20:28;5.18;;;4.50;;
22955;SDS011;40888;48.148;11.526;2023-08-20T08:22:55;9.52;;;3.85;;
22955;SDS011;40888;48.148;11.526;2023-08-20T08:25:21;5.28;;;4.13;;
22955;SDS011;40888;48.148;11.526;2023-08-20T08:27:47;6.78;;;4.30;;
22955;SDS011;40888;48.148;11.526;2023-08-20T08:30:14;5.93;;;4.25;;
22955;SDS011;40888;48.148;11.526;2023-08-20T08:32:40;7.80;;;4.55;;
22955;SDS011;40888;48.148;11.526;2023-08-20T08:35:06;6.18;;;4.18;;
22955;SDS011;40888;48.148;11.526;2023-08-20T08:37:33;6.65;;;3.88;;
22955;SDS011;40888;48.148;11.526;2023-08-20T08:39:59;9.25;;;4.28;;
22955;SDS011;40888;48.148;11.526;2023-08-20T08:42:25;5.47;;;4.30;;
22955;SDS011;40888;48.148;11.526;2023-08-20T08:44:52;4.75;;;4.20;;
22955;SDS011;40888;48.148;11.526;2023-08-20T08:47:18;10.57;;;4.35;;
22955;SDS011;40888;48.148;11.526;2023-08-20T08:49:45;8.50;;;3.90;;
22955;SDS011;40888;48.148;11.526;2023-08-20T08:52:12;6.97;;;4.00;;
22955;SDS011;40888;48.148;11.526;2023-08-20T08:54:39;6.65;;;3.80;;
22955;SDS011;40888;48.148;11.526;2023-08-20T08:57:05;6.25;;;3.90;;
22955;SDS011;40888;48.148;11.526;2023-08-20T08:59:32;4.70;;;3.67;;
22955;SDS011;40888;48.148;11.526;2023-08-20T09:01:58;6.00;;;3.60;;
22955;SDS011;40888;48.148;11.526;2023-08-20T09:04:25;6.05;;;3.70;;
22955;SDS011;40888;48.148;11.526;2023-08-20T09:06:51;8.63;;;3.90;;
22955;SDS011;40888;48.148;11.526;2023-08-20T09:09:18;7.78;;;3.55;;
22955;SDS011;40888;48.148;11.526;2023-08-20T09:11:45;6.40;;;3.80;;
22955;SDS011;40888;48.148;11.526;2023-08-20T09:14:20;4.78;;;4.00;;
22955;SDS011;40888;48.148;11.526;2023-08-20T09:16:47;4.63;;;3.10;;
22955;SDS011;40888;48.148;11.526;2023-08-20T09:19:13;6.82;;;3.45;;
22955;SDS011;40888;48.148;11.526;2023-08-20T09:21:39;6.70;;;3.70;;
22955;SDS011;40888;48.148;11.526;2023-08-20T09:24:06;4.35;;;3.58;;
22955;SDS011;40888;48.148;11.526;2023-08-20T09:26:32;4.30;;;3.60;;
22955;SDS011;40888;48.148;11.526;2023-08-20T09:28:58;5.65;;;3.83;;
22955;SDS011;40888;48.148;11.526;2023-08-20T09:31:36;5.53;;;4.25;;
22955;SDS011;40888;48.148;11.526;2023-08-20T09:34:03;5.25;;;3.80;;
22955;SDS011;40888;48.148;11.526;2023-08-20T09:36:33;5.32;;;3.80;;
22955;SDS011;40888;48.148;11.526;2023-08-20T09:39:00;6.43;;;4.18;;
22955;SDS011;40888;48.148;11.526;2023-08-20T09:41:27;4.97;;;4.07;;
22955;SDS011;40888;48.148;11.526;2023-08-20T09:43:55;4.85;;;4.40;;
22955;SDS011;40888;48.148;11.526;2023-08-20T09:46:23;8.05;;;3.80;;
22955;SDS011;40888;48.148;11.526;2023-08-20T09:48:50;8.60;;;4.20;;
22955;SDS011;40888;48.148;11.526;2023-08-20T09:51:19;7.55;;;4.13;;
22955;SDS011;40888;48.148;11.526;2023-08-20T09:53:48;7.18;;;3.92;;
22955;SDS011;40888;48.148;11.526;2023-08-20T09:56:21;5.95;;;3.72;;
22955;SDS011;40888;48.148;11.526;2023-08-20T09:58:48;6.07;;;3.90;;
22955;SDS011;40888;48.148;11.526;2023-08-20T10:01:16;4.22;;;3.78;;
22955;SDS011;40888;48.148;11.526;2023-08-20T10:03:43;5.40;;;4.30;;
22955;SDS011;40888;48.148;11.526;2023-08-20T10:06:09;6.68;;;4.10;;
22955;SDS011;40888;48.148;11.526;2023-08-20T10:08:36;7.72;;;3.90;;
22955;SDS011;40888;48.148;11.526;2023-08-20T10:11:04;4.68;;;3.60;;
22955;SDS011;40888;48.148;11.526;2023-08-20T10:13:30;5.43;;;3.53;;
22955;SDS011;40888;48.148;11.526;2023-08-20T10:15:56;4.97;;;3.50;;
22955;SDS011;40888;48.148;11.526;2023-08-20T10:18:22;4.57;;;3.40;;
22955;SDS011;40888;48.148;11.526;2023-08-20T10:20:52;8.15;;;3.65;;
22955;SDS011;40888;48.148;11.526;2023-08-20T10:23:21;6.90;;;3.70;;
22955;SDS011;40888;48.148;11.526;2023-08-20T10:25:53;5.38;;;3.88;;
22955;SDS011;40888;48.148;11.526;2023-08-20T10:28:26;6.65;;;3.80;;
22955;SDS011;40888;48.148;11.526;2023-08-20T10:31:02;5.03;;;3.60;;
22955;SDS011;40888;48.148;11.526;2023-08-20T10:33:30;8.60;;;3.67;;
22955;SDS011;40888;48.148;11.526;2023-08-20T10:35:56;4.57;;;3.67;;
22955;SDS011;40888;48.148;11.526;2023-08-20T10:38:22;4.40;;;3.38;;
22955;SDS011;40888;48.148;11.526;2023-08-20T10:46:13;6.45;;;3.53;;
22955;SDS011;40888;48.148;11.526;2023-08-20T10:48:42;5.75;;;4.00;;
22955;SDS011;40888;48.148;11.526;2023-08-20T10:51:54;6.05;;;3.70;;
22955;SDS011;40888;48.148;11.526;2023-08-20T10:59:51;6.75;;;3.90;;
22955;SDS011;40888;48.148;11.526;2023-08-20T11:01:56;8.52;;;4.05;;
22955;SDS011;40888;48.148;11.526;2023-08-20T11:04:29;4.43;;;4.03;;
22955;SDS011;40888;48.148;11.526;2023-08-20T11:06:57;4.25;;;3.85;;
22955;SDS011;40888;48.148;11.526;2023-08-20T11:09:25;9.23;;;4.70;;
22955;SDS011;40888;48.148;11.526;2023-08-20T11:11:51;5.18;;;4.28;;
22955;SDS011;40888;48.148;11.526;2023-08-20T11:14:18;5.15;;;4.65;;
22955;SDS011;40888;48.148;11.526;2023-08-20T11:16:45;4.63;;;4.05;;
22955;SDS011;40888;48.148;11.526;2023-08-20T11:19:12;4.53;;;3.65;;
22955;SDS011;40888;48.148;11.526;2023-08-20T11:21:41;4.20;;;3.70;;
22955;SDS011;40888;48.148;11.526;2023-08-20T11:24:08;5.40;;;3.78;;
22955;SDS011;40888;48.148;11.526;2023-08-20T11:26:34;4.20;;;3.80;;
22955;SDS011;40888;48.148;11.526;2023-08-20T11:29:02;4.85;;;3.75;;
22955;SDS011;40888;48.148;11.526;2023-08-20T11:31:31;6.82;;;3.80;;
22955;SDS011;40888;48.148;11.526;2023-08-20T11:33:57;5.25;;;3.50;;
22955;SDS011;40888;48.148;11.526;2023-08-20T11:36:24;4.85;;;3.33;;
22955;SDS011;40888;48.148;11.526;2023-08-20T11:38:53;7.32;;;3.80;;
22955;SDS011;40888;48.148;11.526;2023-08-20T11:41:23;5.90;;;3.40;;
22955;SDS011;40888;48.148;11.526;2023-08-20T11:43:50;5.80;;;3.47;;
22955;SDS011;40888;48.148;11.526;2023-08-20T11:46:21;4.78;;;3.22;;
22955;SDS011;40888;48.148;11.526;2023-08-20T11:49:07;5.10;;;3.42;;
22955;SDS011;40888;48.148;11.526;2023-08-20T11:54:06;5.10;;;3.42;;
22955;SDS011;40888;48.148;11.526;2023-08-20T11:56:33;5.57;;;3.13;;
22955;SDS011;40888;48.148;11.526;2023-08-20T11:59:00;5.55;;;3.42;;
22955;SDS011;40888;48.148;11.526;2023-08-20T12:01:33;4.68;;;3.35;;
22955;SDS011;40888;48.148;11.526;2023-08-20T12:04:00;3.20;;;2.83;;
22955;SDS011;40888;48.148;11.526;2023-08-20T12:06:26;3.85;;;2.88;;
22955;SDS011;40888;48.148;11.526;2023-08-20T12:08:55;4.57;;;3.40;;
22955;SDS011;40888;48.148;11.526;2023-08-20T12:11:25;4.13;;;3.30;;
22955;SDS011;40888;48.148;11.526;2023-08-20T12:13:52;7.32;;;3.47;;
22955;SDS011;40888;48.148;11.526;2023-08-20T12:16:18;6.70;;;3.15;;
22955;SDS011;40888;48.148;11.526;2023-08-20T12:18:47;4.45;;;3.13;;
22955;SDS011;40888;48.148;11.526;2023-08-20T12:21:14;7.28;;;3.20;;
22955;SDS011;40888;48.148;11.526;2023-08-20T12:23:40;5.43;;;2.88;;
22955;SDS011;40888;48.148;11.526;2023-08-20T12:26:06;5.18;;;3.50;;
22955;SDS011;40888;48.148;11.526;2023-08-20T12:28:35;6.65;;;3.17;;
22955;SDS011;40888;48.148;11.526;2023-08-20T12:31:01;5.10;;;3.28;;
22955;SDS011;40888;48.148;11.526;2023-08-20T12:33:28;5.97;;;3.33;;
22955;SDS011;40888;48.148;11.526;2023-08-20T12:35:55;3.22;;;2.83;;
22955;SDS011;40888;48.148;11.526;2023-08-20T12:38:21;4.03;;;3.20;;
22955;SDS011;40888;48.148;11.526;2023-08-20T12:40:47;4.22;;;3.30;;
22955;SDS011;40888;48.148;11.526;2023-08-20T12:43:14;5.13;;;3.00;;
22955;SDS011;40888;48.148;11.526;2023-08-20T12:45:40;5.85;;;3.05;;
22955;SDS011;40888;48.148;11.526;2023-08-20T12:48:06;6.13;;;3.25;;
22955;SDS011;40888;48.148;11.526;2023-08-20T12:50:32;5.03;;;3.15;;
22955;SDS011;40888;48.148;11.526;2023-08-20T12:52:59;4.97;;;3.28;;
22955;SDS011;40888;48.148;11.526;2023-08-20T12:55:25;4.60;;;3.03;;
22955;SDS011;40888;48.148;11.526;2023-08-20T12:57:52;5.70;;;2.95;;
22955;SDS011;40888;48.148;11.526;2023-08-20T13:00:19;5.43;;;3.40;;
22955;SDS011;40888;48.148;11.526;2023-08-20T13:02:45;3.42;;;3.10;;
22955;SDS011;40888;48.148;11.526;2023-08-20T13:05:12;3.67;;;2.90;;
22955;SDS011;40888;48.148;11.526;2023-08-20T13:07:38;5.07;;;3.25;;
22955;SDS011;40888;48.148;11.526;2023-08-20T13:10:05;4.68;;;3.35;;
22955;SDS011;40888;48.148;11.526;2023-08-20T13:12:31;4.32;;;2.95;;
22955;SDS011;40888;48.148;11.526;2023-08-20T13:14:58;3.55;;;3.25;;
22955;SDS011;40888;48.148;11.526;2023-08-20T13:17:24;3.58;;;3.20;;
22955;SDS011;40888;48.148;11.526;2023-08-20T13:19:51;4.15;;;3.08;;
22955;SDS011;40888;48.148;11.526;2023-08-20T13:22:17;4.90;;;3.40;;
22955;SDS011;40888;48.148;11.526;2023-08-20T13:24:43;4.60;;;3.58;;
22955;SDS011;40888;48.148;11.526;2023-08-20T13:27:09;6.18;;;3.55;;
22955;SDS011;40888;48.148;11.526;2023-08-20T13:29:35;4.20;;;3.38;;
22955;SDS011;40888;48.148;11.526;2023-08-20T13:32:02;5.43;;;3.28;;
22955;SDS011;40888;48.148;11.526;2023-08-20T13:34:28;6.53;;;3.08;;
22955;SDS011;40888;48.148;11.526;2023-08-20T13:36:54;5.00;;;3.15;;
22955;SDS011;40888;48.148;11.526;2023-08-20T13:39:20;4.15;;;3.33;;
22955;SDS011;40888;48.148;11.526;2023-08-20T13:41:48;4.43;;;3.10;;
22955;SDS011;40888;48.148;11.526;2023-08-20T13:44:15;5.13;;;3.50;;
22955;SDS011;40888;48.148;11.526;2023-08-20T13:46:41;5.97;;;3.85;;
22955;SDS011;40888;48.148;11.526;2023-08-20T13:49:07;3.78;;;3.28;;
22955;SDS011;40888;48.148;11.526;2023-08-20T13:51:34;3.92;;;3.53;;
22955;SDS011;40888;48.148;11.526;2023-08-20T13:54:00;3.90;;;3.53;;
22955;SDS011;40888;48.148;11.526;2023-08-20T13:56:26;6.90;;;3.45;;
22955;SDS011;40888;48.148;11.526;2023-08-20T13:58:53;5.53;;;3.40;;
22955;SDS011;40888;48.148;11.526;2023-08-20T14:01:19;5.35;;;3.92;;
22955;SDS011;40888;48.148;11.526;2023-08-20T14:03:45;4.13;;;3.42;;
22955;SDS011;40888;48.148;11.526;2023-08-20T14:06:11;5.05;;;3.50;;
22955;SDS011;40888;48.148;11.526;2023-08-20T14:08:37;7.22;;;3.78;;
22955;SDS011;40888;48.148;11.526;2023-08-20T14:11:04;3.47;;;3.17;;
22955;SDS011;40888;48.148;11.526;2023-08-20T14:13:30;5.80;;;3.47;;
22955;SDS011;40888;48.148;11.526;2023-08-20T14:15:57;4.05;;;3.50;;
22955;SDS011;40888;48.148;11.526;2023-08-20T14:18:23;4.15;;;3.78;;
22955;SDS011;40888;48.148;11.526;2023-08-20T14:20:49;8.23;;;3.78;;
22955;SDS011;40888;48.148;11.526;2023-08-20T14:23:15;3.60;;;3.30;;
22955;SDS011;40888;48.148;11.526;2023-08-20T14:25:41;3.80;;;3.50;;
22955;SDS011;40888;48.148;11.526;2023-08-20T14:28:08;4.10;;;3.30;;
22955;SDS011;40888;48.148;11.526;2023-08-20T14:30:37;5.70;;;3.80;;
22955;SDS011;40888;48.148;11.526;2023-08-20T14:33:04;3.83;;;3.40;;
22955;SDS011;40888;48.148;11.526;2023-08-20T14:35:31;5.03;;;3.90;;
22955;SDS011;40888;48.148;11.526;2023-08-20T14:37:57;5.00;;;3.53;;
22955;SDS011;40888;48.148;11.526;2023-08-20T14:40:23;5.35;;;3.63;;
22955;SDS011;40888;48.148;11.526;2023-08-20T14:42:49;3.85;;;3.55;;
22955;SDS011;40888;48.148;11.526;2023-08-20T14:45:16;7.35;;;3.90;;
22955;SDS011;40888;48.148;11.526;2023-08-20T14:47:42;4.22;;;3.80;;
22955;SDS011;40888;48.148;11.526;2023-08-20T14:50:08;4.50;;;3.47;;
22955;SDS011;40888;48.148;11.526;2023-08-20T14:52:34;4.07;;;3.67;;